sensor_id;sensor_type;location;lat;lon;timestamp;P1;durP1;ratioP1;P2;durP2;ratioP2
5491;SDS011;2768;53.540;10.224;2023-07-31T00:01:19;1.70;;;1.60;;
5491;SDS011;2768;53.540;10.224;2023-07-31T00:07:13;4.70;;;1.90;;
5491;SDS011;2768;53.540;10.224;2023-07-31T00:13:07;2.90;;;1.73;;
5491;SDS011;2768;53.540;10.224;2023-07-31T00:19:01;5.93;;;1.83;;
5491;SDS011;2768;53.540;10.224;2023-07-31T00:24:55;6.87;;;1.50;;
5491;SDS011;2768;53.540;10.224;2023-07-31T00:30:49;3.83;;;2.00;;
5491;SDS011;2768;53.540;10.224;2023-07-31T00:36:43;6.20;;;2.03;;
5491;SDS011;2768;53.540;10.224;2023-07-31T00:42:37;4.87;;;2.00;;
5491;SDS011;2768;53.540;10.224;2023-07-31T00:48:32;4.60;;;2.50;;
5491;SDS011;2768;53.540;10.224;2023-07-31T00:54:26;8.50;;;2.87;;
5491;SDS011;2768;53.540;10.224;2023-07-31T01:00:20;5.83;;;1.83;;
5491;SDS011;2768;53.540;10.224;2023-07-31T01:06:14;5.07;;;2.07;;
5491;SDS011;2768;53.540;10.224;2023-07-31T01:12:14;6.00;;;2.10;;
5491;SDS011;2768;53.540;10.224;2023-07-31T01:18:10;4.53;;;2.37;;
5491;SDS011;2768;53.540;10.224;2023-07-31T01:24:09;6.77;;;2.30;;
5491;SDS011;2768;53.540;10.224;2023-07-31T01:30:15;4.97;;;2.33;;
5491;SDS011;2768;53.540;10.224;2023-07-31T01:36:10;5.00;;;2.30;;
5491;SDS011;2768;53.540;10.224;2023-07-31T01:42:04;4.13;;;1.90;;
5491;SDS011;2768;53.540;10.224;2023-07-31T01:48:00;6.67;;;2.50;;
5491;SDS011;2768;53.540;10.224;2023-07-31T01:53:54;7.47;;;2.40;;
5491;SDS011;2768;53.540;10.224;2023-07-31T01:59:47;4.80;;;2.23;;
5491;SDS011;2768;53.540;10.224;2023-07-31T02:05:45;9.10;;;2.70;;
5491;SDS011;2768;53.540;10.224;2023-07-31T02:11:38;3.23;;;2.27;;
5491;SDS011;2768;53.540;10.224;2023-07-31T02:17:31;4.80;;;2.83;;
5491;SDS011;2768;53.540;10.224;2023-07-31T02:23:26;5.00;;;2.50;;
5491;SDS011;2768;53.540;10.224;2023-07-31T02:29:19;7.67;;;3.03;;
5491;SDS011;2768;53.540;10.224;2023-07-31T02:35:13;6.50;;;2.70;;
5491;SDS011;2768;53.540;10.224;2023-07-31T02:41:08;4.60;;;2.73;;
5491;SDS011;2768;53.540;10.224;2023-07-31T02:47:02;6.30;;;2.37;;
5491;SDS011;2768;53.540;10.224;2023-07-31T02:52:58;7.37;;;2.77;;
5491;SDS011;2768;53.540;10.224;2023-07-31T02:58:53;5.30;;;2.77;;
5491;SDS011;2768;53.540;10.224;2023-07-31T03:04:46;7.40;;;2.73;;
5491;SDS011;2768;53.540;10.224;2023-07-31T03:10:40;5.80;;;2.83;;
5491;SDS011;2768;53.540;10.224;2023-07-31T03:16:34;10.67;;;3.50;;
5491;SDS011;2768;53.540;10.224;2023-07-31T03:22:29;5.37;;;3.00;;
5491;SDS011;2768;53.540;10.224;2023-07-31T03:28:22;6.00;;;3.07;;
5491;SDS011;2768;53.540;10.224;2023-07-31T03:34:17;5.40;;;2.93;;
5491;SDS011;2768;53.540;10.224;2023-07-31T03:40:11;6.17;;;2.87;;
5491;SDS011;2768;53.540;10.224;2023-07-31T03:46:04;3.60;;;2.63;;
5491;SDS011;2768;53.540;10.224;2023-07-31T03:51:59;4.73;;;2.90;;
5491;SDS011;2768;53.540;10.224;2023-07-31T03:57:52;7.53;;;3.27;;
5491;SDS011;2768;53.540;10.224;2023-07-31T04:03:46;8.00;;;3.47;;
5491;SDS011;2768;53.540;10.224;2023-07-31T04:09:41;4.60;;;3.60;;
5491;SDS011;2768;53.540;10.224;2023-07-31T04:15:34;5.50;;;3.30;;
5491;SDS011;2768;53.540;10.224;2023-07-31T04:21:27;7.47;;;4.17;;
5491;SDS011;2768;53.540;10.224;2023-07-31T04:27:22;6.43;;;4.43;;
5491;SDS011;2768;53.540;10.224;2023-07-31T04:33:15;5.50;;;4.13;;
5491;SDS011;2768;53.540;10.224;2023-07-31T04:39:09;4.77;;;3.90;;
5491;SDS011;2768;53.540;10.224;2023-07-31T04:45:04;4.50;;;3.90;;
5491;SDS011;2768;53.540;10.224;2023-07-31T04:50:58;5.37;;;3.80;;
5491;SDS011;2768;53.540;10.224;2023-07-31T04:56:52;4.50;;;3.93;;
5491;SDS011;2768;53.540;10.224;2023-07-31T05:02:46;5.27;;;3.53;;
5491;SDS011;2768;53.540;10.224;2023-07-31T05:08:40;4.07;;;3.77;;
5491;SDS011;2768;53.540;10.224;2023-07-31T05:14:33;5.47;;;3.50;;
5491;SDS011;2768;53.540;10.224;2023-07-31T05:20:28;4.30;;;3.90;;
5491;SDS011;2768;53.540;10.224;2023-07-31T05:35:07;4.20;;;3.80;;
5491;SDS011;2768;53.540;10.224;2023-07-31T05:41:01;4.10;;;3.70;;
5491;SDS011;2768;53.540;10.224;2023-07-31T05:46:54;4.03;;;3.73;;
5491;SDS011;2768;53.540;10.224;2023-07-31T05:52:48;5.40;;;3.43;;
5491;SDS011;2768;53.540;10.224;2023-07-31T05:58:41;3.57;;;3.33;;
5491;SDS011;2768;53.540;10.224;2023-07-31T06:04:35;4.30;;;3.90;;
5491;SDS011;2768;53.540;10.224;2023-07-31T06:10:30;4.30;;;3.90;;
5491;SDS011;2768;53.540;10.224;2023-07-31T06:16:24;3.90;;;3.60;;
5491;SDS011;2768;53.540;10.224;2023-07-31T06:22:19;4.13;;;3.60;;
5491;SDS011;2768;53.540;10.224;2023-07-31T06:28:14;4.10;;;3.70;;
5491;SDS011;2768;53.540;10.224;2023-07-31T06:34:07;4.70;;;4.30;;
5491;SDS011;2768;53.540;10.224;2023-07-31T06:40:00;4.20;;;3.90;;
5491;SDS011;2768;53.540;10.224;2023-07-31T06:45:59;4.20;;;3.87;;
5491;SDS011;2768;53.540;10.224;2023-07-31T06:51:58;4.17;;;3.87;;
5491;SDS011;2768;53.540;10.224;2023-07-31T06:57:52;4.00;;;3.10;;
5491;SDS011;2768;53.540;10.224;2023-07-31T07:03:47;3.40;;;3.20;;
5491;SDS011;2768;53.540;10.224;2023-07-31T07:09:42;3.20;;;3.00;;
5491;SDS011;2768;53.540;10.224;2023-07-31T07:15:36;3.60;;;3.37;;
5491;SDS011;2768;53.540;10.224;2023-07-31T07:21:31;2.93;;;2.73;;
5491;SDS011;2768;53.540;10.224;2023-07-31T07:27:25;3.20;;;3.00;;
5491;SDS011;2768;53.540;10.224;2023-07-31T07:33:18;4.87;;;2.60;;
5491;SDS011;2768;53.540;10.224;2023-07-31T07:39:13;2.67;;;2.47;;
5491;SDS011;2768;53.540;10.224;2023-07-31T07:45:07;4.37;;;2.70;;
5491;SDS011;2768;53.540;10.224;2023-07-31T07:51:01;3.27;;;2.53;;
5491;SDS011;2768;53.540;10.224;2023-07-31T07:56:56;2.63;;;2.43;;
5491;SDS011;2768;53.540;10.224;2023-07-31T08:02:49;2.67;;;2.27;;
5491;SDS011;2768;53.540;10.224;2023-07-31T08:08:44;2.57;;;2.37;;
5491;SDS011;2768;53.540;10.224;2023-07-31T08:14:39;1.90;;;1.80;;
5491;SDS011;2768;53.540;10.224;2023-07-31T08:20:33;1.70;;;1.60;;
5491;SDS011;2768;53.540;10.224;2023-07-31T08:26:27;1.90;;;1.80;;
5491;SDS011;2768;53.540;10.224;2023-07-31T08:32:22;4.17;;;1.90;;
5491;SDS011;2768;53.540;10.224;2023-07-31T08:38:15;2.70;;;1.80;;
5491;SDS011;2768;53.540;10.224;2023-07-31T08:44:09;1.60;;;1.50;;
5491;SDS011;2768;53.540;10.224;2023-07-31T08:50:07;1.40;;;1.40;;
5491;SDS011;2768;53.540;10.224;2023-07-31T08:56:01;1.30;;;1.20;;
5491;SDS011;2768;53.540;10.224;2023-07-31T09:01:56;1.60;;;1.50;;
5491;SDS011;2768;53.540;10.224;2023-07-31T09:07:54;2.70;;;2.50;;
5491;SDS011;2768;53.540;10.224;2023-07-31T09:13:49;1.20;;;1.10;;
5491;SDS011;2768;53.540;10.224;2023-07-31T09:19:43;1.10;;;1.10;;
5491;SDS011;2768;53.540;10.224;2023-07-31T09:25:38;1.20;;;1.10;;
5491;SDS011;2768;53.540;10.224;2023-07-31T09:31:38;0.90;;;0.90;;
5491;SDS011;2768;53.540;10.224;2023-07-31T09:37:33;0.80;;;0.80;;
5491;SDS011;2768;53.540;10.224;2023-07-31T09:43:29;0.83;;;0.70;;
5491;SDS011;2768;53.540;10.224;2023-07-31T09:49:22;0.70;;;0.63;;
5491;SDS011;2768;53.540;10.224;2023-07-31T09:55:18;0.60;;;0.60;;
5491;SDS011;2768;53.540;10.224;2023-07-31T10:01:15;0.63;;;0.60;;
5491;SDS011;2768;53.540;10.224;2023-07-31T10:07:08;0.70;;;0.50;;
5491;SDS011;2768;53.540;10.224;2023-07-31T10:13:02;0.70;;;0.70;;
5491;SDS011;2768;53.540;10.224;2023-07-31T10:18:59;0.43;;;0.43;;
5491;SDS011;2768;53.540;10.224;2023-07-31T10:24:54;0.40;;;0.40;;
5491;SDS011;2768;53.540;10.224;2023-07-31T10:30:50;0.50;;;0.50;;
5491;SDS011;2768;53.540;10.224;2023-07-31T10:36:45;0.60;;;0.60;;
5491;SDS011;2768;53.540;10.224;2023-07-31T10:42:45;3.93;;;2.97;;
5491;SDS011;2768;53.540;10.224;2023-07-31T10:48:40;6.60;;;4.60;;
5491;SDS011;2768;53.540;10.224;2023-07-31T10:54:36;9.03;;;6.57;;
5491;SDS011;2768;53.540;10.224;2023-07-31T11:00:31;16.10;;;7.97;;
5491;SDS011;2768;53.540;10.224;2023-07-31T11:06:29;11.50;;;8.40;;
5491;SDS011;2768;53.540;10.224;2023-07-31T11:12:24;14.10;;;8.50;;
5491;SDS011;2768;53.540;10.224;2023-07-31T11:18:17;19.80;;;10.00;;
5491;SDS011;2768;53.540;10.224;2023-07-31T11:24:12;11.20;;;8.40;;
5491;SDS011;2768;53.540;10.224;2023-07-31T11:30:07;11.47;;;6.53;;
5491;SDS011;2768;53.540;10.224;2023-07-31T11:36:01;8.97;;;6.60;;
5491;SDS011;2768;53.540;10.224;2023-07-31T11:41:58;12.53;;;5.90;;
5491;SDS011;2768;53.540;10.224;2023-07-31T11:47:53;5.17;;;4.53;;
5491;SDS011;2768;53.540;10.224;2023-07-31T11:53:47;7.67;;;4.47;;
5491;SDS011;2768;53.540;10.224;2023-07-31T11:59:43;4.90;;;3.60;;
5491;SDS011;2768;53.540;10.224;2023-07-31T12:05:38;4.10;;;3.70;;
5491;SDS011;2768;53.540;10.224;2023-07-31T12:11:32;6.00;;;3.50;;
5491;SDS011;2768;53.540;10.224;2023-07-31T12:17:35;3.43;;;3.13;;
5491;SDS011;2768;53.540;10.224;2023-07-31T12:23:31;3.37;;;2.97;;
5491;SDS011;2768;53.540;10.224;2023-07-31T12:29:33;5.73;;;2.40;;
5491;SDS011;2768;53.540;10.224;2023-07-31T12:35:35;2.50;;;2.30;;
5491;SDS011;2768;53.540;10.224;2023-07-31T12:41:31;3.47;;;2.60;;
5491;SDS011;2768;53.540;10.224;2023-07-31T12:47:24;2.50;;;1.83;;
5491;SDS011;2768;53.540;10.224;2023-07-31T12:53:18;2.70;;;2.30;;
5491;SDS011;2768;53.540;10.224;2023-07-31T12:59:13;3.13;;;2.30;;
5491;SDS011;2768;53.540;10.224;2023-07-31T13:05:06;1.97;;;1.80;;
5491;SDS011;2768;53.540;10.224;2023-07-31T13:11:00;2.63;;;1.90;;
5491;SDS011;2768;53.540;10.224;2023-07-31T13:16:55;1.67;;;1.57;;
5491;SDS011;2768;53.540;10.224;2023-07-31T13:22:48;1.80;;;1.70;;
5491;SDS011;2768;53.540;10.224;2023-07-31T13:28:42;1.60;;;1.50;;
5491;SDS011;2768;53.540;10.224;2023-07-31T13:34:37;1.70;;;1.60;;
5491;SDS011;2768;53.540;10.224;2023-07-31T13:40:30;2.10;;;1.90;;
5491;SDS011;2768;53.540;10.224;2023-07-31T13:46:23;1.20;;;1.20;;
5491;SDS011;2768;53.540;10.224;2023-07-31T13:52:18;1.77;;;1.23;;
5491;SDS011;2768;53.540;10.224;2023-07-31T13:58:11;1.10;;;1.10;;
5491;SDS011;2768;53.540;10.224;2023-07-31T14:04:05;1.97;;;1.83;;
5491;SDS011;2768;53.540;10.224;2023-07-31T14:09:59;1.80;;;1.40;;
5491;SDS011;2768;53.540;10.224;2023-07-31T14:15:55;1.20;;;1.20;;
5491;SDS011;2768;53.540;10.224;2023-07-31T14:21:49;1.57;;;1.47;;
5491;SDS011;2768;53.540;10.224;2023-07-31T14:28:01;1.10;;;1.10;;
5491;SDS011;2768;53.540;10.224;2023-07-31T14:33:55;1.33;;;1.23;;
5491;SDS011;2768;53.540;10.224;2023-07-31T14:39:48;1.70;;;1.43;;
5491;SDS011;2768;53.540;10.224;2023-07-31T14:45:43;1.00;;;1.00;;
5491;SDS011;2768;53.540;10.224;2023-07-31T14:51:38;0.80;;;0.80;;
5491;SDS011;2768;53.540;10.224;2023-07-31T14:57:35;2.20;;;1.30;;
5491;SDS011;2768;53.540;10.224;2023-07-31T15:03:30;1.50;;;1.33;;
5491;SDS011;2768;53.540;10.224;2023-07-31T15:09:23;1.93;;;1.83;;
5491;SDS011;2768;53.540;10.224;2023-07-31T15:15:17;2.80;;;2.60;;
5491;SDS011;2768;53.540;10.224;2023-07-31T15:21:11;3.30;;;2.83;;
5491;SDS011;2768;53.540;10.224;2023-07-31T15:27:05;3.07;;;2.87;;
5491;SDS011;2768;53.540;10.224;2023-07-31T15:33:00;5.63;;;2.80;;
5491;SDS011;2768;53.540;10.224;2023-07-31T15:38:55;3.40;;;3.10;;
5491;SDS011;2768;53.540;10.224;2023-07-31T15:44:49;3.10;;;2.80;;
5491;SDS011;2768;53.540;10.224;2023-07-31T15:50:43;3.53;;;3.23;;
5491;SDS011;2768;53.540;10.224;2023-07-31T15:56:38;3.60;;;3.30;;
5491;SDS011;2768;53.540;10.224;2023-07-31T16:02:32;3.93;;;3.57;;
5491;SDS011;2768;53.540;10.224;2023-07-31T16:08:26;4.50;;;4.10;;
5491;SDS011;2768;53.540;10.224;2023-07-31T16:20:17;6.10;;;4.90;;
5491;SDS011;2768;53.540;10.224;2023-07-31T16:26:10;5.13;;;4.67;;
5491;SDS011;2768;53.540;10.224;2023-07-31T16:32:06;5.90;;;5.30;;
5491;SDS011;2768;53.540;10.224;2023-07-31T16:38:20;5.50;;;5.00;;
5491;SDS011;2768;53.540;10.224;2023-07-31T16:44:13;6.27;;;4.70;;
5491;SDS011;2768;53.540;10.224;2023-07-31T16:50:09;4.47;;;4.17;;
5491;SDS011;2768;53.540;10.224;2023-07-31T16:56:03;3.97;;;3.57;;
5491;SDS011;2768;53.540;10.224;2023-07-31T17:01:56;3.43;;;2.57;;
5491;SDS011;2768;53.540;10.224;2023-07-31T17:07:52;3.30;;;2.50;;
5491;SDS011;2768;53.540;10.224;2023-07-31T17:13:45;4.23;;;3.83;;
5491;SDS011;2768;53.540;10.224;2023-07-31T17:19:39;3.27;;;2.97;;
5491;SDS011;2768;53.540;10.224;2023-07-31T17:25:33;3.13;;;2.83;;
5491;SDS011;2768;53.540;10.224;2023-07-31T17:31:27;5.47;;;3.10;;
5491;SDS011;2768;53.540;10.224;2023-07-31T17:37:22;3.50;;;3.20;;
5491;SDS011;2768;53.540;10.224;2023-07-31T17:43:16;6.17;;;3.63;;
5491;SDS011;2768;53.540;10.224;2023-07-31T17:49:09;5.83;;;4.10;;
5491;SDS011;2768;53.540;10.224;2023-07-31T17:55:03;4.43;;;4.03;;
5491;SDS011;2768;53.540;10.224;2023-07-31T18:00:58;4.00;;;3.70;;
5491;SDS011;2768;53.540;10.224;2023-07-31T18:06:52;6.13;;;4.40;;
5491;SDS011;2768;53.540;10.224;2023-07-31T18:12:45;7.90;;;4.80;;
5491;SDS011;2768;53.540;10.224;2023-07-31T18:18:40;6.70;;;4.70;;
5491;SDS011;2768;53.540;10.224;2023-07-31T18:24:34;4.87;;;4.43;;
5491;SDS011;2768;53.540;10.224;2023-07-31T18:30:28;4.60;;;4.20;;
5491;SDS011;2768;53.540;10.224;2023-07-31T18:36:24;6.33;;;4.47;;
5491;SDS011;2768;53.540;10.224;2023-07-31T18:42:17;6.10;;;4.80;;
5491;SDS011;2768;53.540;10.224;2023-07-31T18:48:11;6.30;;;5.80;;
5491;SDS011;2768;53.540;10.224;2023-07-31T18:54:08;7.40;;;6.70;;
5491;SDS011;2768;53.540;10.224;2023-07-31T19:00:01;7.43;;;6.50;;
5491;SDS011;2768;53.540;10.224;2023-07-31T19:06:00;9.17;;;7.40;;
5491;SDS011;2768;53.540;10.224;2023-07-31T19:11:56;7.10;;;6.40;;
5491;SDS011;2768;53.540;10.224;2023-07-31T19:17:49;7.87;;;7.17;;
5491;SDS011;2768;53.540;10.224;2023-07-31T19:23:43;8.80;;;6.30;;
5491;SDS011;2768;53.540;10.224;2023-07-31T19:29:38;8.27;;;7.47;;
5491;SDS011;2768;53.540;10.224;2023-07-31T19:35:32;8.00;;;7.30;;
5491;SDS011;2768;53.540;10.224;2023-07-31T19:41:26;7.67;;;6.87;;
5491;SDS011;2768;53.540;10.224;2023-07-31T19:47:21;7.90;;;7.10;;
5491;SDS011;2768;53.540;10.224;2023-07-31T19:53:14;8.33;;;7.43;;
5491;SDS011;2768;53.540;10.224;2023-07-31T19:59:08;9.57;;;8.60;;
5491;SDS011;2768;53.540;10.224;2023-07-31T20:07:34;10.40;;;9.27;;
5491;SDS011;2768;53.540;10.224;2023-07-31T20:13:27;10.57;;;8.20;;
5491;SDS011;2768;53.540;10.224;2023-07-31T20:19:20;10.50;;;8.20;;
5491;SDS011;2768;53.540;10.224;2023-07-31T20:25:15;11.67;;;8.37;;
5491;SDS011;2768;53.540;10.224;2023-07-31T20:31:08;9.77;;;8.97;;
5491;SDS011;2768;53.540;10.224;2023-07-31T20:37:02;12.60;;;10.30;;
5491;SDS011;2768;53.540;10.224;2023-07-31T20:42:57;10.50;;;9.47;;
5491;SDS011;2768;53.540;10.224;2023-07-31T20:48:51;8.33;;;7.63;;
5491;SDS011;2768;53.540;10.224;2023-07-31T20:54:44;9.47;;;8.27;;
5491;SDS011;2768;53.540;10.224;2023-07-31T21:00:41;8.37;;;7.57;;
5491;SDS011;2768;53.540;10.224;2023-07-31T21:06:36;9.13;;;7.90;;
5491;SDS011;2768;53.540;10.224;2023-07-31T21:12:30;7.97;;;7.33;;
5491;SDS011;2768;53.540;10.224;2023-07-31T21:18:24;6.80;;;6.20;;
5491;SDS011;2768;53.540;10.224;2023-07-31T21:24:18;4.00;;;3.70;;
5491;SDS011;2768;53.540;10.224;2023-07-31T21:30:11;3.47;;;3.20;;
5491;SDS011;2768;53.540;10.224;2023-07-31T21:36:06;3.50;;;3.30;;
5491;SDS011;2768;53.540;10.224;2023-07-31T21:41:59;4.50;;;3.17;;
5491;SDS011;2768;53.540;10.224;2023-07-31T21:47:53;2.60;;;2.40;;
5491;SDS011;2768;53.540;10.224;2023-07-31T21:53:47;3.40;;;2.87;;
5491;SDS011;2768;53.540;10.224;2023-07-31T21:59:40;2.73;;;2.50;;
5491;SDS011;2768;53.540;10.224;2023-07-31T22:05:34;2.27;;;2.07;;
5491;SDS011;2768;53.540;10.224;2023-07-31T22:11:28;3.33;;;1.80;;
5491;SDS011;2768;53.540;10.224;2023-07-31T22:17:22;2.20;;;1.60;;
5491;SDS011;2768;53.540;10.224;2023-07-31T22:23:16;1.50;;;1.40;;
5491;SDS011;2768;53.540;10.224;2023-07-31T22:29:11;1.60;;;1.50;;
5491;SDS011;2768;53.540;10.224;2023-07-31T22:35:05;2.10;;;1.90;;
5491;SDS011;2768;53.540;10.224;2023-07-31T22:40:58;1.83;;;1.40;;
5491;SDS011;2768;53.540;10.224;2023-07-31T22:46:52;5.50;;;1.73;;
5491;SDS011;2768;53.540;10.224;2023-07-31T22:52:46;2.60;;;2.30;;
5491;SDS011;2768;53.540;10.224;2023-07-31T22:58:39;3.10;;;2.87;;
5491;SDS011;2768;53.540;10.224;2023-07-31T23:04:35;3.60;;;3.33;;
5491;SDS011;2768;53.540;10.224;2023-07-31T23:10:30;4.43;;;3.97;;
5491;SDS011;2768;53.540;10.224;2023-07-31T23:16:24;4.03;;;3.73;;
5491;SDS011;2768;53.540;10.224;2023-07-31T23:22:18;3.80;;;3.50;;
5491;SDS011;2768;53.540;10.224;2023-07-31T23:28:12;4.43;;;3.20;;
5491;SDS011;2768;53.540;10.224;2023-07-31T23:34:05;3.67;;;3.37;;
5491;SDS011;2768;53.540;10.224;2023-07-31T23:40:00;4.30;;;3.20;;
5491;SDS011;2768;53.540;10.224;2023-07-31T23:45:54;2.93;;;2.63;;
5491;SDS011;2768;53.540;10.224;2023-07-31T23:51:47;2.73;;;2.53;;
5491;SDS011;2768;53.540;10.224;2023-07-31T23:57:42;2.60;;;2.40;;
